sensor_id;sensor_type;location;lat;lon;timestamp;P1;durP1;ratioP1;P2;durP2;ratioP2
69765;SDS011;57039;48.014;21.384;2023-10-31T00:00:25;10.10;;;4.90;;
69765;SDS011;57039;48.014;21.384;2023-10-31T00:01:28;11.35;;;4.65;;
69765;SDS011;57039;48.014;21.384;2023-10-31T00:02:31;9.05;;;4.85;;
69765;SDS011;57039;48.014;21.384;2023-10-31T00:03:34;9.13;;;4.53;;
69765;SDS011;57039;48.014;21.384;2023-10-31T00:04:37;10.48;;;4.95;;
69765;SDS011;57039;48.014;21.384;2023-10-31T00:05:40;10.40;;;5.27;;
69765;SDS011;57039;48.014;21.384;2023-10-31T00:06:43;11.37;;;5.30;;
69765;SDS011;57039;48.014;21.384;2023-10-31T00:07:46;9.40;;;5.20;;
69765;SDS011;57039;48.014;21.384;2023-10-31T00:08:49;9.35;;;4.30;;
69765;SDS011;57039;48.014;21.384;2023-10-31T00:09:52;8.68;;;4.70;;
69765;SDS011;57039;48.014;21.384;2023-10-31T00:10:55;11.23;;;5.03;;
69765;SDS011;57039;48.014;21.384;2023-10-31T00:11:58;9.27;;;4.90;;
69765;SDS011;57039;48.014;21.384;2023-10-31T00:13:01;8.55;;;4.65;;
69765;SDS011;57039;48.014;21.384;2023-10-31T00:14:05;9.63;;;4.18;;
69765;SDS011;57039;48.014;21.384;2023-10-31T00:15:28;8.65;;;4.45;;
69765;SDS011;57039;48.014;21.384;2023-10-31T00:16:33;8.67;;;4.30;;
69765;SDS011;57039;48.014;21.384;2023-10-31T00:17:36;8.70;;;4.33;;
69765;SDS011;57039;48.014;21.384;2023-10-31T00:18:39;8.23;;;4.00;;
69765;SDS011;57039;48.014;21.384;2023-10-31T00:19:42;8.45;;;4.87;;
69765;SDS011;57039;48.014;21.384;2023-10-31T00:20:46;8.45;;;4.62;;
69765;SDS011;57039;48.014;21.384;2023-10-31T00:21:50;8.23;;;4.22;;
69765;SDS011;57039;48.014;21.384;2023-10-31T00:22:53;8.40;;;4.37;;
69765;SDS011;57039;48.014;21.384;2023-10-31T00:23:56;9.88;;;4.47;;
69765;SDS011;57039;48.014;21.384;2023-10-31T00:24:59;9.02;;;4.28;;
69765;SDS011;57039;48.014;21.384;2023-10-31T00:26:02;9.15;;;4.55;;
69765;SDS011;57039;48.014;21.384;2023-10-31T00:27:05;7.77;;;4.00;;
69765;SDS011;57039;48.014;21.384;2023-10-31T00:28:08;8.17;;;4.03;;
69765;SDS011;57039;48.014;21.384;2023-10-31T00:29:11;7.57;;;4.12;;
69765;SDS011;57039;48.014;21.384;2023-10-31T00:30:14;9.25;;;4.70;;
69765;SDS011;57039;48.014;21.384;2023-10-31T00:31:17;10.02;;;4.32;;
69765;SDS011;57039;48.014;21.384;2023-10-31T00:32:20;8.52;;;4.25;;
69765;SDS011;57039;48.014;21.384;2023-10-31T00:33:24;8.23;;;4.00;;
69765;SDS011;57039;48.014;21.384;2023-10-31T00:34:26;9.07;;;4.45;;
69765;SDS011;57039;48.014;21.384;2023-10-31T00:35:29;7.65;;;4.00;;
69765;SDS011;57039;48.014;21.384;2023-10-31T00:36:33;10.55;;;4.30;;
69765;SDS011;57039;48.014;21.384;2023-10-31T00:37:36;8.00;;;3.77;;
69765;SDS011;57039;48.014;21.384;2023-10-31T00:38:40;8.33;;;4.27;;
69765;SDS011;57039;48.014;21.384;2023-10-31T00:39:43;7.57;;;3.65;;
69765;SDS011;57039;48.014;21.384;2023-10-31T00:40:46;9.13;;;4.70;;
69765;SDS011;57039;48.014;21.384;2023-10-31T00:41:49;7.60;;;4.15;;
69765;SDS011;57039;48.014;21.384;2023-10-31T00:42:52;7.60;;;3.67;;
69765;SDS011;57039;48.014;21.384;2023-10-31T00:43:56;9.55;;;4.55;;
69765;SDS011;57039;48.014;21.384;2023-10-31T00:44:59;9.43;;;4.15;;
69765;SDS011;57039;48.014;21.384;2023-10-31T00:46:03;9.05;;;3.85;;
69765;SDS011;57039;48.014;21.384;2023-10-31T00:47:07;9.43;;;4.28;;
69765;SDS011;57039;48.014;21.384;2023-10-31T00:48:10;8.13;;;3.83;;
69765;SDS011;57039;48.014;21.384;2023-10-31T00:49:13;7.70;;;4.23;;
69765;SDS011;57039;48.014;21.384;2023-10-31T00:50:16;7.50;;;3.85;;
69765;SDS011;57039;48.014;21.384;2023-10-31T00:51:19;8.32;;;4.00;;
69765;SDS011;57039;48.014;21.384;2023-10-31T00:52:22;8.32;;;4.25;;
69765;SDS011;57039;48.014;21.384;2023-10-31T00:53:25;7.90;;;4.32;;
69765;SDS011;57039;48.014;21.384;2023-10-31T00:54:28;8.40;;;4.20;;
69765;SDS011;57039;48.014;21.384;2023-10-31T00:55:31;9.30;;;4.85;;
69765;SDS011;57039;48.014;21.384;2023-10-31T00:56:34;7.18;;;4.07;;
69765;SDS011;57039;48.014;21.384;2023-10-31T00:57:37;8.55;;;4.12;;
69765;SDS011;57039;48.014;21.384;2023-10-31T00:58:40;8.77;;;4.07;;
69765;SDS011;57039;48.014;21.384;2023-10-31T00:59:43;8.83;;;4.53;;
69765;SDS011;57039;48.014;21.384;2023-10-31T01:00:46;8.85;;;4.28;;
69765;SDS011;57039;48.014;21.384;2023-10-31T01:01:49;8.80;;;4.10;;
69765;SDS011;57039;48.014;21.384;2023-10-31T01:02:52;8.55;;;4.15;;
69765;SDS011;57039;48.014;21.384;2023-10-31T01:03:55;7.72;;;3.85;;
69765;SDS011;57039;48.014;21.384;2023-10-31T01:04:59;8.63;;;4.05;;
69765;SDS011;57039;48.014;21.384;2023-10-31T01:06:03;8.15;;;4.12;;
69765;SDS011;57039;48.014;21.384;2023-10-31T01:07:06;9.13;;;4.25;;
69765;SDS011;57039;48.014;21.384;2023-10-31T01:08:09;9.38;;;4.03;;
69765;SDS011;57039;48.014;21.384;2023-10-31T01:09:12;9.10;;;4.20;;
69765;SDS011;57039;48.014;21.384;2023-10-31T01:10:15;7.13;;;3.60;;
69765;SDS011;57039;48.014;21.384;2023-10-31T01:11:18;8.27;;;4.32;;
69765;SDS011;57039;48.014;21.384;2023-10-31T01:12:21;7.85;;;4.00;;
69765;SDS011;57039;48.014;21.384;2023-10-31T01:13:25;9.20;;;4.35;;
69765;SDS011;57039;48.014;21.384;2023-10-31T01:14:27;10.90;;;4.10;;
69765;SDS011;57039;48.014;21.384;2023-10-31T01:15:30;8.65;;;4.30;;
69765;SDS011;57039;48.014;21.384;2023-10-31T01:16:34;9.57;;;4.62;;
69765;SDS011;57039;48.014;21.384;2023-10-31T01:17:37;8.35;;;3.90;;
69765;SDS011;57039;48.014;21.384;2023-10-31T01:18:40;7.80;;;4.22;;
69765;SDS011;57039;48.014;21.384;2023-10-31T01:19:43;7.73;;;3.93;;
69765;SDS011;57039;48.014;21.384;2023-10-31T01:20:46;7.80;;;4.03;;
69765;SDS011;57039;48.014;21.384;2023-10-31T01:21:49;11.25;;;4.70;;
69765;SDS011;57039;48.014;21.384;2023-10-31T01:22:52;10.38;;;5.00;;
69765;SDS011;57039;48.014;21.384;2023-10-31T01:23:55;8.98;;;4.40;;
69765;SDS011;57039;48.014;21.384;2023-10-31T01:24:58;9.90;;;5.03;;
69765;SDS011;57039;48.014;21.384;2023-10-31T01:26:01;9.48;;;4.53;;
69765;SDS011;57039;48.014;21.384;2023-10-31T01:27:04;10.85;;;5.22;;
69765;SDS011;57039;48.014;21.384;2023-10-31T01:28:07;9.75;;;5.18;;
69765;SDS011;57039;48.014;21.384;2023-10-31T01:29:10;9.90;;;5.05;;
69765;SDS011;57039;48.014;21.384;2023-10-31T01:30:13;10.30;;;4.80;;
69765;SDS011;57039;48.014;21.384;2023-10-31T01:31:16;9.50;;;4.87;;
69765;SDS011;57039;48.014;21.384;2023-10-31T01:32:20;9.32;;;4.18;;
69765;SDS011;57039;48.014;21.384;2023-10-31T01:33:24;12.05;;;4.90;;
69765;SDS011;57039;48.014;21.384;2023-10-31T01:34:27;9.70;;;4.65;;
69765;SDS011;57039;48.014;21.384;2023-10-31T01:35:30;8.73;;;4.32;;
69765;SDS011;57039;48.014;21.384;2023-10-31T01:36:33;8.43;;;4.10;;
69765;SDS011;57039;48.014;21.384;2023-10-31T01:37:36;9.85;;;4.50;;
69765;SDS011;57039;48.014;21.384;2023-10-31T01:38:39;9.32;;;4.45;;
69765;SDS011;57039;48.014;21.384;2023-10-31T01:39:43;8.57;;;4.70;;
69765;SDS011;57039;48.014;21.384;2023-10-31T01:40:49;8.00;;;4.70;;
69765;SDS011;57039;48.014;21.384;2023-10-31T01:41:53;7.17;;;4.23;;
69765;SDS011;57039;48.014;21.384;2023-10-31T01:42:57;8.88;;;4.60;;
69765;SDS011;57039;48.014;21.384;2023-10-31T01:44:00;8.88;;;4.50;;
69765;SDS011;57039;48.014;21.384;2023-10-31T01:45:03;9.10;;;4.25;;
69765;SDS011;57039;48.014;21.384;2023-10-31T01:46:06;8.90;;;4.20;;
69765;SDS011;57039;48.014;21.384;2023-10-31T01:47:10;8.70;;;4.22;;
69765;SDS011;57039;48.014;21.384;2023-10-31T01:48:13;7.90;;;4.35;;
69765;SDS011;57039;48.014;21.384;2023-10-31T01:49:16;9.35;;;4.50;;
69765;SDS011;57039;48.014;21.384;2023-10-31T01:50:19;8.60;;;4.20;;
69765;SDS011;57039;48.014;21.384;2023-10-31T01:51:22;8.87;;;4.57;;
69765;SDS011;57039;48.014;21.384;2023-10-31T01:52:26;10.10;;;4.00;;
69765;SDS011;57039;48.014;21.384;2023-10-31T01:53:29;7.68;;;4.25;;
69765;SDS011;57039;48.014;21.384;2023-10-31T01:54:37;6.20;;;3.70;;
69765;SDS011;57039;48.014;21.384;2023-10-31T01:55:42;7.60;;;4.15;;
69765;SDS011;57039;48.014;21.384;2023-10-31T01:56:47;8.70;;;4.15;;
69765;SDS011;57039;48.014;21.384;2023-10-31T01:57:53;8.02;;;4.30;;
69765;SDS011;57039;48.014;21.384;2023-10-31T01:58:57;9.20;;;4.40;;
69765;SDS011;57039;48.014;21.384;2023-10-31T02:00:00;9.48;;;4.35;;
69765;SDS011;57039;48.014;21.384;2023-10-31T02:01:13;7.12;;;4.10;;
69765;SDS011;57039;48.014;21.384;2023-10-31T02:02:16;8.07;;;4.20;;
69765;SDS011;57039;48.014;21.384;2023-10-31T02:03:20;7.43;;;3.70;;
69765;SDS011;57039;48.014;21.384;2023-10-31T02:04:23;9.10;;;4.43;;
69765;SDS011;57039;48.014;21.384;2023-10-31T02:05:26;7.40;;;4.35;;
69765;SDS011;57039;48.014;21.384;2023-10-31T02:06:31;10.25;;;4.22;;
69765;SDS011;57039;48.014;21.384;2023-10-31T02:07:34;7.68;;;4.28;;
69765;SDS011;57039;48.014;21.384;2023-10-31T02:08:37;7.15;;;4.00;;
69765;SDS011;57039;48.014;21.384;2023-10-31T02:09:39;7.28;;;3.95;;
69765;SDS011;57039;48.014;21.384;2023-10-31T02:10:43;10.05;;;4.55;;
69765;SDS011;57039;48.014;21.384;2023-10-31T02:11:46;8.35;;;4.70;;
69765;SDS011;57039;48.014;21.384;2023-10-31T02:12:49;8.50;;;4.00;;
69765;SDS011;57039;48.014;21.384;2023-10-31T02:13:52;10.20;;;4.37;;
69765;SDS011;57039;48.014;21.384;2023-10-31T02:14:55;10.63;;;4.65;;
69765;SDS011;57039;48.014;21.384;2023-10-31T02:15:57;6.75;;;4.18;;
69765;SDS011;57039;48.014;21.384;2023-10-31T02:17:01;8.48;;;4.55;;
69765;SDS011;57039;48.014;21.384;2023-10-31T02:18:03;7.47;;;4.12;;
69765;SDS011;57039;48.014;21.384;2023-10-31T02:19:06;10.07;;;4.70;;
69765;SDS011;57039;48.014;21.384;2023-10-31T02:20:10;10.40;;;4.70;;
69765;SDS011;57039;48.014;21.384;2023-10-31T02:21:13;7.85;;;4.37;;
69765;SDS011;57039;48.014;21.384;2023-10-31T02:22:16;8.57;;;4.53;;
69765;SDS011;57039;48.014;21.384;2023-10-31T02:23:19;9.83;;;4.60;;
69765;SDS011;57039;48.014;21.384;2023-10-31T02:24:22;9.07;;;4.83;;
69765;SDS011;57039;48.014;21.384;2023-10-31T02:25:25;9.75;;;4.78;;
69765;SDS011;57039;48.014;21.384;2023-10-31T02:26:29;9.65;;;4.78;;
69765;SDS011;57039;48.014;21.384;2023-10-31T02:27:33;10.18;;;4.55;;
69765;SDS011;57039;48.014;21.384;2023-10-31T02:28:36;11.02;;;5.05;;
69765;SDS011;57039;48.014;21.384;2023-10-31T02:29:40;9.15;;;4.30;;
69765;SDS011;57039;48.014;21.384;2023-10-31T02:30:43;7.93;;;4.45;;
69765;SDS011;57039;48.014;21.384;2023-10-31T02:31:45;8.85;;;4.55;;
69765;SDS011;57039;48.014;21.384;2023-10-31T02:32:49;8.50;;;5.00;;
69765;SDS011;57039;48.014;21.384;2023-10-31T02:33:52;8.97;;;4.43;;
69765;SDS011;57039;48.014;21.384;2023-10-31T02:34:56;8.40;;;4.37;;
69765;SDS011;57039;48.014;21.384;2023-10-31T02:35:59;8.82;;;4.80;;
69765;SDS011;57039;48.014;21.384;2023-10-31T02:37:02;8.65;;;4.90;;
69765;SDS011;57039;48.014;21.384;2023-10-31T02:38:05;9.15;;;4.30;;
69765;SDS011;57039;48.014;21.384;2023-10-31T02:39:09;8.63;;;4.70;;
69765;SDS011;57039;48.014;21.384;2023-10-31T02:40:12;7.55;;;4.50;;
69765;SDS011;57039;48.014;21.384;2023-10-31T02:41:15;9.38;;;4.80;;
69765;SDS011;57039;48.014;21.384;2023-10-31T02:42:19;8.63;;;4.57;;
69765;SDS011;57039;48.014;21.384;2023-10-31T02:43:22;9.30;;;4.57;;
69765;SDS011;57039;48.014;21.384;2023-10-31T02:44:25;8.83;;;4.23;;
69765;SDS011;57039;48.014;21.384;2023-10-31T02:45:28;9.07;;;5.23;;
69765;SDS011;57039;48.014;21.384;2023-10-31T02:46:30;8.70;;;4.53;;
69765;SDS011;57039;48.014;21.384;2023-10-31T02:47:33;8.45;;;4.50;;
69765;SDS011;57039;48.014;21.384;2023-10-31T02:48:36;10.18;;;4.87;;
69765;SDS011;57039;48.014;21.384;2023-10-31T02:49:42;9.20;;;4.35;;
69765;SDS011;57039;48.014;21.384;2023-10-31T02:50:45;9.38;;;4.75;;
69765;SDS011;57039;48.014;21.384;2023-10-31T02:51:48;8.13;;;4.60;;
69765;SDS011;57039;48.014;21.384;2023-10-31T02:52:51;8.35;;;4.72;;
69765;SDS011;57039;48.014;21.384;2023-10-31T02:53:54;9.10;;;4.93;;
69765;SDS011;57039;48.014;21.384;2023-10-31T02:54:57;8.20;;;4.50;;
69765;SDS011;57039;48.014;21.384;2023-10-31T02:56:00;7.70;;;4.80;;
69765;SDS011;57039;48.014;21.384;2023-10-31T02:57:03;8.27;;;4.32;;
69765;SDS011;57039;48.014;21.384;2023-10-31T02:58:07;8.50;;;4.25;;
69765;SDS011;57039;48.014;21.384;2023-10-31T02:59:10;9.73;;;5.75;;
69765;SDS011;57039;48.014;21.384;2023-10-31T03:00:14;13.25;;;6.97;;
69765;SDS011;57039;48.014;21.384;2023-10-31T03:01:17;12.50;;;7.85;;
69765;SDS011;57039;48.014;21.384;2023-10-31T03:02:22;12.55;;;7.15;;
69765;SDS011;57039;48.014;21.384;2023-10-31T03:03:25;14.60;;;8.93;;
69765;SDS011;57039;48.014;21.384;2023-10-31T03:04:29;16.85;;;10.20;;
69765;SDS011;57039;48.014;21.384;2023-10-31T03:05:32;19.17;;;12.03;;
69765;SDS011;57039;48.014;21.384;2023-10-31T03:06:35;18.13;;;11.60;;
69765;SDS011;57039;48.014;21.384;2023-10-31T03:07:38;18.48;;;10.05;;
69765;SDS011;57039;48.014;21.384;2023-10-31T03:08:41;14.02;;;8.07;;
69765;SDS011;57039;48.014;21.384;2023-10-31T03:09:44;13.18;;;7.80;;
69765;SDS011;57039;48.014;21.384;2023-10-31T03:10:48;10.82;;;6.95;;
69765;SDS011;57039;48.014;21.384;2023-10-31T03:11:53;9.93;;;5.68;;
69765;SDS011;57039;48.014;21.384;2023-10-31T03:12:55;10.43;;;6.10;;
69765;SDS011;57039;48.014;21.384;2023-10-31T03:13:58;9.90;;;5.95;;
69765;SDS011;57039;48.014;21.384;2023-10-31T03:15:02;11.40;;;5.50;;
69765;SDS011;57039;48.014;21.384;2023-10-31T03:16:08;9.80;;;5.20;;
69765;SDS011;57039;48.014;21.384;2023-10-31T03:17:11;9.50;;;5.30;;
69765;SDS011;57039;48.014;21.384;2023-10-31T03:18:14;9.52;;;5.45;;
69765;SDS011;57039;48.014;21.384;2023-10-31T03:19:17;8.40;;;4.72;;
69765;SDS011;57039;48.014;21.384;2023-10-31T03:20:21;9.73;;;5.05;;
69765;SDS011;57039;48.014;21.384;2023-10-31T03:21:24;7.75;;;4.55;;
69765;SDS011;57039;48.014;21.384;2023-10-31T03:22:27;8.57;;;4.95;;
69765;SDS011;57039;48.014;21.384;2023-10-31T03:23:29;7.45;;;4.68;;
69765;SDS011;57039;48.014;21.384;2023-10-31T03:24:32;9.55;;;4.90;;
69765;SDS011;57039;48.014;21.384;2023-10-31T03:25:35;9.38;;;4.72;;
69765;SDS011;57039;48.014;21.384;2023-10-31T03:26:38;8.73;;;4.67;;
69765;SDS011;57039;48.014;21.384;2023-10-31T03:27:41;8.23;;;4.70;;
69765;SDS011;57039;48.014;21.384;2023-10-31T03:28:44;9.10;;;4.95;;
69765;SDS011;57039;48.014;21.384;2023-10-31T03:29:48;10.90;;;4.68;;
69765;SDS011;57039;48.014;21.384;2023-10-31T03:30:51;11.05;;;5.40;;
69765;SDS011;57039;48.014;21.384;2023-10-31T03:31:54;9.02;;;5.15;;
69765;SDS011;57039;48.014;21.384;2023-10-31T03:32:57;11.30;;;5.80;;
69765;SDS011;57039;48.014;21.384;2023-10-31T03:34:00;9.60;;;5.20;;
69765;SDS011;57039;48.014;21.384;2023-10-31T03:35:03;9.20;;;5.03;;
69765;SDS011;57039;48.014;21.384;2023-10-31T03:36:08;12.37;;;5.25;;
69765;SDS011;57039;48.014;21.384;2023-10-31T03:37:11;9.63;;;5.00;;
69765;SDS011;57039;48.014;21.384;2023-10-31T03:38:14;9.53;;;5.10;;
69765;SDS011;57039;48.014;21.384;2023-10-31T03:39:17;10.50;;;5.12;;
69765;SDS011;57039;48.014;21.384;2023-10-31T03:40:20;10.48;;;5.30;;
69765;SDS011;57039;48.014;21.384;2023-10-31T03:41:23;9.73;;;5.10;;
69765;SDS011;57039;48.014;21.384;2023-10-31T03:42:26;10.50;;;4.93;;
69765;SDS011;57039;48.014;21.384;2023-10-31T03:43:31;9.00;;;5.03;;
69765;SDS011;57039;48.014;21.384;2023-10-31T03:44:33;10.05;;;5.03;;
69765;SDS011;57039;48.014;21.384;2023-10-31T03:45:36;10.27;;;5.15;;
69765;SDS011;57039;48.014;21.384;2023-10-31T03:46:39;9.05;;;5.43;;
69765;SDS011;57039;48.014;21.384;2023-10-31T03:47:43;10.23;;;5.07;;
69765;SDS011;57039;48.014;21.384;2023-10-31T03:48:46;10.47;;;4.77;;
69765;SDS011;57039;48.014;21.384;2023-10-31T03:49:49;11.43;;;5.32;;
69765;SDS011;57039;48.014;21.384;2023-10-31T03:50:51;8.02;;;4.55;;
69765;SDS011;57039;48.014;21.384;2023-10-31T03:51:54;8.50;;;4.80;;
69765;SDS011;57039;48.014;21.384;2023-10-31T03:52:57;9.65;;;4.93;;
69765;SDS011;57039;48.014;21.384;2023-10-31T03:54:00;18.15;;;9.88;;
69765;SDS011;57039;48.014;21.384;2023-10-31T03:55:03;28.77;;;18.42;;
69765;SDS011;57039;48.014;21.384;2023-10-31T03:56:06;59.28;;;37.72;;
69765;SDS011;57039;48.014;21.384;2023-10-31T03:57:10;54.35;;;34.38;;
69765;SDS011;57039;48.014;21.384;2023-10-31T03:58:13;45.67;;;28.97;;
69765;SDS011;57039;48.014;21.384;2023-10-31T03:59:16;56.67;;;35.07;;
69765;SDS011;57039;48.014;21.384;2023-10-31T04:00:18;47.35;;;29.83;;
69765;SDS011;57039;48.014;21.384;2023-10-31T04:01:22;31.87;;;20.80;;
69765;SDS011;57039;48.014;21.384;2023-10-31T04:02:25;24.17;;;15.07;;
69765;SDS011;57039;48.014;21.384;2023-10-31T04:03:28;19.45;;;11.60;;
69765;SDS011;57039;48.014;21.384;2023-10-31T04:04:31;16.33;;;10.25;;
69765;SDS011;57039;48.014;21.384;2023-10-31T04:05:34;13.52;;;8.15;;
69765;SDS011;57039;48.014;21.384;2023-10-31T04:06:37;15.13;;;7.53;;
69765;SDS011;57039;48.014;21.384;2023-10-31T04:07:45;13.65;;;7.75;;
69765;SDS011;57039;48.014;21.384;2023-10-31T04:08:49;10.77;;;6.50;;
69765;SDS011;57039;48.014;21.384;2023-10-31T04:09:52;10.87;;;6.67;;
69765;SDS011;57039;48.014;21.384;2023-10-31T04:10:55;14.63;;;9.20;;
69765;SDS011;57039;48.014;21.384;2023-10-31T04:11:58;14.52;;;9.10;;
69765;SDS011;57039;48.014;21.384;2023-10-31T04:13:01;13.18;;;8.00;;
69765;SDS011;57039;48.014;21.384;2023-10-31T04:14:04;12.13;;;6.70;;
69765;SDS011;57039;48.014;21.384;2023-10-31T04:15:07;13.80;;;6.68;;
69765;SDS011;57039;48.014;21.384;2023-10-31T04:16:11;9.90;;;5.80;;
69765;SDS011;57039;48.014;21.384;2023-10-31T04:17:14;10.15;;;5.65;;
69765;SDS011;57039;48.014;21.384;2023-10-31T04:18:17;10.18;;;5.70;;
69765;SDS011;57039;48.014;21.384;2023-10-31T04:19:20;12.57;;;5.87;;
69765;SDS011;57039;48.014;21.384;2023-10-31T04:20:23;11.10;;;5.87;;
69765;SDS011;57039;48.014;21.384;2023-10-31T04:21:26;10.60;;;5.15;;
69765;SDS011;57039;48.014;21.384;2023-10-31T04:22:29;10.18;;;5.50;;
69765;SDS011;57039;48.014;21.384;2023-10-31T04:23:33;10.20;;;5.35;;
69765;SDS011;57039;48.014;21.384;2023-10-31T04:24:39;10.00;;;5.60;;
69765;SDS011;57039;48.014;21.384;2023-10-31T04:25:41;10.60;;;4.95;;
69765;SDS011;57039;48.014;21.384;2023-10-31T04:26:44;12.52;;;5.80;;
69765;SDS011;57039;48.014;21.384;2023-10-31T04:27:47;12.48;;;5.50;;
69765;SDS011;57039;48.014;21.384;2023-10-31T04:28:50;10.90;;;5.20;;
69765;SDS011;57039;48.014;21.384;2023-10-31T04:29:53;10.00;;;5.40;;
69765;SDS011;57039;48.014;21.384;2023-10-31T04:30:56;8.93;;;5.13;;
69765;SDS011;57039;48.014;21.384;2023-10-31T04:31:58;9.63;;;5.72;;
69765;SDS011;57039;48.014;21.384;2023-10-31T04:33:02;10.13;;;5.20;;
69765;SDS011;57039;48.014;21.384;2023-10-31T04:34:05;10.05;;;5.40;;
69765;SDS011;57039;48.014;21.384;2023-10-31T04:35:08;9.88;;;5.55;;
69765;SDS011;57039;48.014;21.384;2023-10-31T04:36:11;10.95;;;5.05;;
69765;SDS011;57039;48.014;21.384;2023-10-31T04:37:14;10.85;;;5.25;;
69765;SDS011;57039;48.014;21.384;2023-10-31T04:38:17;12.15;;;5.12;;
69765;SDS011;57039;48.014;21.384;2023-10-31T04:39:20;8.27;;;4.80;;
69765;SDS011;57039;48.014;21.384;2023-10-31T04:40:22;8.57;;;4.80;;
69765;SDS011;57039;48.014;21.384;2023-10-31T04:41:25;9.53;;;5.20;;
69765;SDS011;57039;48.014;21.384;2023-10-31T04:42:28;8.45;;;4.37;;
69765;SDS011;57039;48.014;21.384;2023-10-31T04:43:32;8.57;;;4.62;;
69765;SDS011;57039;48.014;21.384;2023-10-31T04:44:34;12.23;;;5.40;;
69765;SDS011;57039;48.014;21.384;2023-10-31T04:45:37;11.98;;;4.82;;
69765;SDS011;57039;48.014;21.384;2023-10-31T04:46:40;9.85;;;4.75;;
69765;SDS011;57039;48.014;21.384;2023-10-31T04:47:43;8.52;;;4.75;;
69765;SDS011;57039;48.014;21.384;2023-10-31T04:48:46;8.25;;;4.78;;
69765;SDS011;57039;48.014;21.384;2023-10-31T04:49:49;9.57;;;4.62;;
69765;SDS011;57039;48.014;21.384;2023-10-31T04:50:52;14.37;;;5.23;;
69765;SDS011;57039;48.014;21.384;2023-10-31T04:51:55;10.40;;;5.00;;
69765;SDS011;57039;48.014;21.384;2023-10-31T04:52:58;11.85;;;5.05;;
69765;SDS011;57039;48.014;21.384;2023-10-31T04:54:01;9.73;;;4.65;;
69765;SDS011;57039;48.014;21.384;2023-10-31T04:55:05;9.77;;;4.43;;
69765;SDS011;57039;48.014;21.384;2023-10-31T04:56:14;9.13;;;4.70;;
69765;SDS011;57039;48.014;21.384;2023-10-31T04:57:18;7.95;;;4.47;;
69765;SDS011;57039;48.014;21.384;2023-10-31T04:58:20;9.27;;;4.78;;
69765;SDS011;57039;48.014;21.384;2023-10-31T04:59:24;9.98;;;4.95;;
69765;SDS011;57039;48.014;21.384;2023-10-31T05:00:27;11.75;;;5.22;;
69765;SDS011;57039;48.014;21.384;2023-10-31T05:01:30;10.13;;;4.70;;
69765;SDS011;57039;48.014;21.384;2023-10-31T05:02:33;10.73;;;5.00;;
69765;SDS011;57039;48.014;21.384;2023-10-31T05:03:35;11.05;;;5.53;;
69765;SDS011;57039;48.014;21.384;2023-10-31T05:04:39;10.27;;;4.75;;
69765;SDS011;57039;48.014;21.384;2023-10-31T05:05:44;9.13;;;4.68;;
69765;SDS011;57039;48.014;21.384;2023-10-31T05:06:47;8.80;;;4.80;;
69765;SDS011;57039;48.014;21.384;2023-10-31T05:07:50;9.32;;;4.50;;
69765;SDS011;57039;48.014;21.384;2023-10-31T05:08:53;10.00;;;4.95;;
69765;SDS011;57039;48.014;21.384;2023-10-31T05:09:56;11.27;;;4.70;;
69765;SDS011;57039;48.014;21.384;2023-10-31T05:10:59;8.68;;;4.85;;
69765;SDS011;57039;48.014;21.384;2023-10-31T05:12:02;10.60;;;5.23;;
69765;SDS011;57039;48.014;21.384;2023-10-31T05:13:05;9.50;;;4.83;;
69765;SDS011;57039;48.014;21.384;2023-10-31T05:14:08;8.13;;;4.40;;
69765;SDS011;57039;48.014;21.384;2023-10-31T05:15:14;9.90;;;4.65;;
69765;SDS011;57039;48.014;21.384;2023-10-31T05:16:17;9.98;;;4.85;;
69765;SDS011;57039;48.014;21.384;2023-10-31T05:17:20;9.55;;;4.80;;
69765;SDS011;57039;48.014;21.384;2023-10-31T05:18:23;8.88;;;4.65;;
69765;SDS011;57039;48.014;21.384;2023-10-31T05:19:26;9.70;;;4.75;;
69765;SDS011;57039;48.014;21.384;2023-10-31T05:20:29;8.82;;;4.60;;
69765;SDS011;57039;48.014;21.384;2023-10-31T05:21:32;8.70;;;4.50;;
69765;SDS011;57039;48.014;21.384;2023-10-31T05:22:35;7.83;;;4.60;;
69765;SDS011;57039;48.014;21.384;2023-10-31T05:23:39;9.60;;;4.60;;
69765;SDS011;57039;48.014;21.384;2023-10-31T05:24:42;8.18;;;4.22;;
69765;SDS011;57039;48.014;21.384;2023-10-31T05:25:45;8.43;;;4.43;;
69765;SDS011;57039;48.014;21.384;2023-10-31T05:26:48;9.10;;;4.35;;
69765;SDS011;57039;48.014;21.384;2023-10-31T05:27:51;8.23;;;4.30;;
69765;SDS011;57039;48.014;21.384;2023-10-31T05:28:55;8.95;;;4.20;;
69765;SDS011;57039;48.014;21.384;2023-10-31T05:29:59;9.23;;;4.43;;
69765;SDS011;57039;48.014;21.384;2023-10-31T05:31:03;8.60;;;4.60;;
69765;SDS011;57039;48.014;21.384;2023-10-31T05:32:06;10.07;;;4.85;;
69765;SDS011;57039;48.014;21.384;2023-10-31T05:33:08;9.23;;;4.53;;
69765;SDS011;57039;48.014;21.384;2023-10-31T05:34:12;9.73;;;5.40;;
69765;SDS011;57039;48.014;21.384;2023-10-31T05:35:15;11.48;;;5.65;;
69765;SDS011;57039;48.014;21.384;2023-10-31T05:36:22;9.95;;;5.40;;
69765;SDS011;57039;48.014;21.384;2023-10-31T05:37:26;10.60;;;5.70;;
69765;SDS011;57039;48.014;21.384;2023-10-31T05:38:29;13.10;;;6.30;;
69765;SDS011;57039;48.014;21.384;2023-10-31T05:39:31;12.07;;;5.70;;
69765;SDS011;57039;48.014;21.384;2023-10-31T05:40:35;11.45;;;5.90;;
69765;SDS011;57039;48.014;21.384;2023-10-31T05:41:38;10.30;;;5.80;;
69765;SDS011;57039;48.014;21.384;2023-10-31T05:42:40;12.20;;;6.15;;
69765;SDS011;57039;48.014;21.384;2023-10-31T05:43:43;12.33;;;6.30;;
69765;SDS011;57039;48.014;21.384;2023-10-31T05:44:46;13.30;;;6.17;;
69765;SDS011;57039;48.014;21.384;2023-10-31T05:45:49;11.07;;;5.85;;
69765;SDS011;57039;48.014;21.384;2023-10-31T05:46:52;11.82;;;6.50;;
69765;SDS011;57039;48.014;21.384;2023-10-31T05:47:55;12.95;;;6.00;;
69765;SDS011;57039;48.014;21.384;2023-10-31T05:48:58;12.18;;;5.97;;
69765;SDS011;57039;48.014;21.384;2023-10-31T05:50:01;10.68;;;5.35;;
69765;SDS011;57039;48.014;21.384;2023-10-31T05:51:04;10.55;;;5.37;;
69765;SDS011;57039;48.014;21.384;2023-10-31T05:52:14;9.30;;;5.03;;
69765;SDS011;57039;48.014;21.384;2023-10-31T05:53:17;12.30;;;5.35;;
69765;SDS011;57039;48.014;21.384;2023-10-31T05:54:20;12.60;;;5.17;;
69765;SDS011;57039;48.014;21.384;2023-10-31T05:55:23;13.20;;;5.67;;
69765;SDS011;57039;48.014;21.384;2023-10-31T05:56:26;10.10;;;5.30;;
69765;SDS011;57039;48.014;21.384;2023-10-31T05:57:29;11.52;;;5.30;;
69765;SDS011;57039;48.014;21.384;2023-10-31T05:58:32;8.88;;;4.90;;
69765;SDS011;57039;48.014;21.384;2023-10-31T05:59:35;9.90;;;5.12;;
69765;SDS011;57039;48.014;21.384;2023-10-31T06:00:38;8.52;;;5.28;;
69765;SDS011;57039;48.014;21.384;2023-10-31T06:01:41;14.48;;;5.80;;
69765;SDS011;57039;48.014;21.384;2023-10-31T06:02:44;9.35;;;5.05;;
69765;SDS011;57039;48.014;21.384;2023-10-31T06:03:47;9.60;;;5.00;;
69765;SDS011;57039;48.014;21.384;2023-10-31T06:04:49;9.03;;;4.67;;
69765;SDS011;57039;48.014;21.384;2023-10-31T06:05:52;9.27;;;5.00;;
69765;SDS011;57039;48.014;21.384;2023-10-31T06:06:55;8.95;;;5.00;;
69765;SDS011;57039;48.014;21.384;2023-10-31T06:07:58;10.90;;;5.30;;
69765;SDS011;57039;48.014;21.384;2023-10-31T06:09:01;9.63;;;5.65;;
69765;SDS011;57039;48.014;21.384;2023-10-31T06:10:04;9.68;;;5.57;;
69765;SDS011;57039;48.014;21.384;2023-10-31T06:11:07;12.90;;;5.28;;
69765;SDS011;57039;48.014;21.384;2023-10-31T06:12:11;13.77;;;5.75;;
69765;SDS011;57039;48.014;21.384;2023-10-31T06:13:14;9.98;;;5.15;;